createdAt,value
2022-08-30T00:01:40.557Z,39.63
2022-08-30T00:06:32.930Z,39.89
2022-08-30T00:11:25.293Z,39.77
2022-08-30T00:16:17.721Z,39.86
2022-08-30T00:21:10.267Z,39.76
2022-08-30T00:26:02.901Z,39.63
2022-08-30T00:30:55.438Z,39.81
2022-08-30T00:35:47.870Z,39.94
2022-08-30T00:40:40.457Z,39.75
2022-08-30T00:45:32.955Z,39.75
2022-08-30T00:50:25.452Z,39.82
2022-08-30T00:55:18.001Z,39.75
2022-08-30T01:00:10.479Z,39.77
2022-08-30T01:05:03.261Z,39.72
2022-08-30T01:09:55.900Z,39.94
2022-08-30T01:14:48.450Z,39.92
2022-08-30T01:19:41.263Z,39.85
2022-08-30T01:24:33.826Z,40.02
2022-08-30T01:29:26.424Z,39.68
2022-08-30T01:34:18.969Z,39.91
2022-08-30T01:39:11.751Z,39.74
2022-08-30T01:44:05.956Z,39.95
2022-08-30T01:48:58.172Z,39.96
2022-08-30T01:53:50.872Z,39.91
2022-08-30T01:58:43.332Z,39.87
2022-08-30T02:03:35.963Z,39.89
2022-08-30T02:08:28.447Z,39.89
2022-08-30T02:13:20.769Z,39.88
2022-08-30T02:18:13.199Z,39.85
2022-08-30T02:23:06.013Z,39.9
2022-08-30T02:27:58.492Z,39.94
2022-08-30T02:32:50.907Z,39.87
2022-08-30T02:37:43.476Z,39.93
2022-08-30T02:42:35.923Z,39.99
2022-08-30T02:47:28.497Z,39.92
2022-08-30T02:52:22.661Z,39.83
2022-08-30T02:57:19.917Z,39.87
2022-08-30T03:02:06.167Z,39.95
2022-08-30T03:06:58.617Z,39.98
2022-08-30T03:11:50.808Z,39.96
2022-08-30T03:16:43.515Z,39.98
2022-08-30T03:21:36.076Z,39.87
2022-08-30T03:26:28.821Z,39.83
2022-08-30T03:31:21.310Z,39.9
2022-08-30T03:36:13.940Z,39.82
2022-08-30T03:41:07.168Z,39.92
2022-08-30T03:45:58.956Z,39.83
2022-08-30T03:50:51.352Z,39.92
2022-08-30T03:55:44.050Z,39.8
2022-08-30T04:00:36.980Z,40
2022-08-30T04:05:29.473Z,39.88
2022-08-30T04:10:22.179Z,39.95
2022-08-30T04:15:14.706Z,39.91
2022-08-30T04:20:07.412Z,39.6
2022-08-30T04:24:59.801Z,39.19
2022-08-30T04:29:52.048Z,39
2022-08-30T04:39:36.741Z,39.62
2022-08-30T04:44:29.264Z,39.97
2022-08-30T04:49:22.310Z,39.56
2022-08-30T04:54:14.606Z,40.88
2022-08-30T04:59:07.169Z,39.63
2022-08-30T05:03:59.614Z,39.9
2022-08-30T05:08:52.031Z,40
2022-08-30T05:13:44.738Z,40.01
2022-08-30T05:18:37.250Z,40.16
2022-08-30T05:23:30.012Z,40.69
2022-08-30T05:28:26.002Z,40.6
2022-08-30T05:33:15.025Z,40.8
2022-08-30T05:38:07.264Z,41.27
2022-08-30T05:43:00.075Z,41.15
2022-08-30T05:47:52.874Z,40.56
2022-08-30T05:52:45.247Z,41.28
2022-08-30T05:57:37.861Z,40.45
2022-08-30T06:02:30.308Z,40.53
2022-08-30T06:07:22.953Z,41.02
2022-08-30T06:12:15.743Z,40.64
2022-08-30T06:17:08.416Z,40.53
2022-08-30T06:22:01.207Z,40.52
2022-08-30T06:26:53.966Z,40.63
2022-08-30T06:31:46.662Z,40.65
2022-08-30T06:36:39.112Z,40.68
2022-08-30T06:41:31.620Z,40.8
2022-08-30T06:51:11.843Z,40.98
2022-08-30T06:56:05.536Z,41.04
2022-08-30T07:00:58.147Z,41.09
2022-08-30T07:05:50.862Z,41.14
2022-08-30T07:10:43.275Z,41.24
2022-08-30T07:15:38.093Z,41.28
2022-08-30T07:20:28.381Z,41.4
2022-08-30T07:25:20.808Z,41.45
2022-08-30T07:30:13.375Z,41.48
2022-08-30T07:35:06.054Z,41.26
2022-08-30T07:39:58.390Z,41.46
2022-08-30T07:44:53.652Z,41.33
2022-08-30T07:49:43.716Z,41.58
2022-08-30T07:54:36.363Z,41.77
2022-08-30T07:59:30.775Z,41.79
2022-08-30T08:04:21.670Z,41.93
2022-08-30T08:09:14.363Z,42.42
2022-08-30T08:14:06.333Z,46.99
2022-08-30T08:18:58.006Z,45.17
2022-08-30T08:23:50.734Z,44.67
2022-08-30T08:33:30.861Z,44.8
2022-08-30T08:38:24.589Z,44.36
2022-08-30T08:43:17.067Z,44.5
2022-08-30T08:48:09.704Z,44.66
2022-08-30T08:53:02.661Z,44.39
2022-08-30T08:57:55.450Z,44.56
2022-08-30T09:02:47.884Z,44.41
2022-08-30T09:07:40.572Z,44.51
2022-08-30T09:12:33.185Z,44.63
2022-08-30T09:17:25.713Z,44.38
2022-08-30T09:22:18.461Z,44.32
2022-08-30T09:27:10.902Z,44.14
2022-08-30T09:32:22.800Z,44.59
2022-08-30T09:36:55.905Z,44.99
2022-08-30T09:41:48.501Z,45.26
2022-08-30T09:46:40.951Z,45.13
2022-08-30T09:51:33.558Z,44.97
2022-08-30T09:56:26.361Z,45.05
2022-08-30T10:06:06.525Z,44.54
2022-08-30T10:11:00.229Z,44.56
2022-08-30T10:15:52.924Z,44.22
2022-08-30T10:20:45.310Z,44.16
2022-08-30T10:25:38.012Z,44.17
2022-08-30T10:30:30.777Z,44.05
2022-08-30T10:35:23.541Z,43.96
2022-08-30T10:40:16.126Z,43.85
2022-08-30T10:45:08.579Z,43.92
2022-08-30T10:50:00.928Z,43.88
2022-08-30T10:54:53.613Z,43.78
2022-08-30T10:59:46.128Z,43.66
2022-08-30T11:04:38.698Z,43.57
2022-08-30T11:09:31.446Z,43.54
2022-08-30T11:14:25.445Z,43.45
2022-08-30T11:19:16.707Z,43.74
2022-08-30T11:24:11.583Z,43.43
2022-08-30T11:29:02.139Z,43.55
2022-08-30T11:33:54.740Z,43.73
2022-08-30T11:38:47.550Z,43.08
2022-08-30T11:43:40.502Z,42.95
2022-08-30T11:48:32.974Z,42.46
2022-08-30T11:53:25.554Z,42.72
2022-08-30T11:58:18.380Z,42.47
2022-08-30T12:03:11.282Z,42.72
2022-08-30T12:08:04.053Z,42.25
2022-08-30T12:12:56.834Z,42
2022-08-30T12:17:50.657Z,43.75
2022-08-30T12:22:42.344Z,41.52
2022-08-30T12:27:34.802Z,41.62
2022-08-30T12:32:27.453Z,41.77
2022-08-30T12:37:20.029Z,41.85
2022-08-30T12:42:12.751Z,40.88
2022-08-30T12:47:05.430Z,41.19
2022-08-30T12:51:57.871Z,41.37
2022-08-30T12:56:50.520Z,40.78
2022-08-30T13:01:43.344Z,40.62
2022-08-30T13:06:36.044Z,40.35
2022-08-30T13:11:29.442Z,40.72
2022-08-30T13:16:20.744Z,40.38
2022-08-30T13:21:13.046Z,39.91
2022-08-30T13:26:05.779Z,39.81
2022-08-30T13:30:58.064Z,39.54
2022-08-30T13:35:50.513Z,39.81
2022-08-30T13:40:43.089Z,39.15
2022-08-30T13:45:42.943Z,39.06
2022-08-30T13:50:28.245Z,39.18
2022-08-30T13:55:21.029Z,39.51
2022-08-30T14:00:14.452Z,39.27
2022-08-30T14:05:06.378Z,39.29
2022-08-30T14:10:30.245Z,39.41
2022-08-30T14:14:51.268Z,39.31
2022-08-30T14:19:44.158Z,39.58
2022-08-30T14:24:36.456Z,39.36
2022-08-30T14:29:31.204Z,39.62
2022-08-30T14:34:23.384Z,39.69
2022-08-30T14:39:15.881Z,39.53
2022-08-30T14:44:08.384Z,39.65
2022-08-30T14:49:01.006Z,39.78
2022-08-30T14:53:53.720Z,39.68
2022-08-30T14:58:46.289Z,39.85
2022-08-30T15:03:38.838Z,40.19
2022-08-30T15:08:31.524Z,40.36
2022-08-30T15:13:24.140Z,40.01
2022-08-30T15:18:17.282Z,40.55
2022-08-30T15:23:09.718Z,40.36
2022-08-30T15:28:02.440Z,40.61
2022-08-30T15:32:55.056Z,40.52
2022-08-30T15:37:47.760Z,40.67
2022-08-30T15:42:40.388Z,40.73
2022-08-30T15:47:33.206Z,40.72
2022-08-30T15:52:25.631Z,40.53
2022-08-30T15:57:18.194Z,41.29
2022-08-30T16:02:10.834Z,40.56
2022-08-30T16:07:03.378Z,40.61
2022-08-30T16:11:55.463Z,40.57
2022-08-30T16:16:48.070Z,40.38
2022-08-30T16:21:40.633Z,40.44
2022-08-30T16:26:33.281Z,40.11
2022-08-30T16:31:26.076Z,40.19
2022-08-30T16:36:18.195Z,40.33
2022-08-30T16:41:10.913Z,40.24
2022-08-30T16:46:03.519Z,40.3
2022-08-30T16:50:56.083Z,40.26
2022-08-30T16:55:48.854Z,40.34
2022-08-30T17:00:41.490Z,40.34
2022-08-30T17:05:34.024Z,40.44
2022-08-30T17:10:31.451Z,40.47
2022-08-30T17:15:19.383Z,40.42
2022-08-30T17:20:11.853Z,40.53
2022-08-30T17:25:05.199Z,40.45
2022-08-30T17:29:57.712Z,40.51
2022-08-30T17:34:50.388Z,40.56
2022-08-30T17:39:42.900Z,40.6
2022-08-30T17:44:35.700Z,40.56
2022-08-30T17:49:27.627Z,40.57
2022-08-30T17:54:20.366Z,40.66
2022-08-30T17:59:13.175Z,40.64
2022-08-30T18:08:58.397Z,40.7
2022-08-30T18:13:50.935Z,40.81
2022-08-30T18:18:43.683Z,40.78
2022-08-30T18:23:40.407Z,40.78
2022-08-30T18:28:32.242Z,40.8
2022-08-30T18:33:24.805Z,40.94
2022-08-30T18:38:17.217Z,40.91
2022-08-30T18:43:09.632Z,40.96
2022-08-30T18:48:02.159Z,41.05
2022-08-30T18:52:55.983Z,41.07
2022-08-30T18:57:47.117Z,41.11
2022-08-30T19:02:39.609Z,41.25
2022-08-30T19:07:34.447Z,41.24
2022-08-30T19:12:24.430Z,41.27
2022-08-30T19:17:16.895Z,41.39
2022-08-30T19:22:09.761Z,41.48
2022-08-30T19:27:02.465Z,41.33
2022-08-30T19:31:55.187Z,41.34
2022-08-30T19:36:47.802Z,41.33
2022-08-30T19:41:40.380Z,41.47
2022-08-30T19:46:32.779Z,41.46
2022-08-30T19:51:25.425Z,41.46
2022-08-30T19:56:17.912Z,41.59
2022-08-30T20:01:10.543Z,41.63
2022-08-30T20:06:03.299Z,41.72
2022-08-30T20:10:55.508Z,41.73
2022-08-30T20:15:47.963Z,41.84
2022-08-30T20:20:40.460Z,41.77
2022-08-30T20:25:33.230Z,41.79
2022-08-30T20:30:25.714Z,41.97
2022-08-30T20:35:18.218Z,42.03
2022-08-30T20:40:14.976Z,42.09
2022-08-30T20:45:03.125Z,42.06
2022-08-30T20:49:55.531Z,42.13
2022-08-30T20:54:48.132Z,42.24
2022-08-30T20:59:40.656Z,42.25
2022-08-30T21:04:33.320Z,42.35
2022-08-30T21:09:25.990Z,42.33
2022-08-30T21:14:18.254Z,42.32
2022-08-30T21:19:10.883Z,42.35
2022-08-30T21:24:03.653Z,42.32
2022-08-30T21:28:56.154Z,42.38
2022-08-30T21:33:48.570Z,42.42
2022-08-30T21:38:41.243Z,42.42
2022-08-30T21:43:33.562Z,42.53
2022-08-30T21:48:26.126Z,42.56
2022-08-30T21:53:19.022Z,42.6
2022-08-30T21:58:11.854Z,42.63
2022-08-30T22:03:04.477Z,42.64
2022-08-30T22:07:57.096Z,42.61
2022-08-30T22:12:49.690Z,42.63
2022-08-30T22:17:42.380Z,42.63
2022-08-30T22:22:34.430Z,42.66
2022-08-30T22:27:27.038Z,42.67
2022-08-30T22:32:19.708Z,42.71
2022-08-30T22:37:12.264Z,42.72
2022-08-30T22:42:04.644Z,42.74
2022-08-30T22:46:57.140Z,42.75
2022-08-30T22:51:49.452Z,42.8
2022-08-30T22:56:41.933Z,42.81
2022-08-30T23:01:34.627Z,42.86
2022-08-30T23:06:26.674Z,42.89
2022-08-30T23:11:19.268Z,42.88
2022-08-30T23:16:11.942Z,42.95
2022-08-30T23:21:04.668Z,42.95
2022-08-30T23:25:57.357Z,43.03
2022-08-30T23:30:49.744Z,42.96
2022-08-30T23:35:42.468Z,42.93
2022-08-30T23:40:35.078Z,42.96
2022-08-30T23:45:27.479Z,42.97
2022-08-30T23:50:19.940Z,43
2022-08-30T23:55:12.599Z,43
